PWSweather.com
Personal Weather Stations
Station Observations
MADWEATHER
MadeiraPT

MadeiraPT

Lat: 32.735, Lon: -17.194

Elevation: 1063

Station Type: Davis VantagePro2

www.mad-weather.com

High Low Average
Temperature 74.3°F23.5°C 65.9°F18.8°C 68.7°F20.4°C
Dew Point 62.3°F16.8°C 57.1°F13.9°C 59.5°F15.3°C
Winds 11.2 mph 18.0 kmh Calm Calm 3.0 mph SW4.8 kmh SW
Wind Gusts 15.0 mph24.1 kmh -- 4.0 mph6.4 kmh
Humidity 82% 57% 73%
Pressure 30.13 in1020.3 mb 30.04 in1017.3 mb -
Precipitation 0.00 in0.0 mm - -
Hour Temp Dew Point Humidity Winds Wind Gusts Pressure Precip Precip Rate Daily Precip Total
12:00 AM 67.6°F19.8°C 58.3°F14.6°C 72% Calm Calm -- 30.07 in1018.3 mb - 0.00 in0.0 mm 0.00 in0.0 mm
12:10 AM 67.1°F19.5°C 58.2°F14.6°C 73% Calm Calm -- 30.07 in1018.3 mb - 0.00 in0.0 mm 0.00 in0.0 mm
12:20 AM 66.5°F19.2°C 57.6°F14.2°C 73% Calm Calm -- 30.07 in1018.3 mb - 0.00 in0.0 mm 0.00 in0.0 mm
12:30 AM 66.5°F19.2°C 58.3°F14.6°C 75% 0.1 mph WNW0.2 kmh WNW 2.0 mph3.2 kmh 30.07 in1018.3 mb - 0.00 in0.0 mm 0.00 in0.0 mm
12:40 AM 66.4°F19.1°C 58.6°F14.8°C 76% 1.2 mph WNW1.9 kmh WNW 2.0 mph3.2 kmh 30.07 in1018.3 mb - 0.00 in0.0 mm 0.00 in0.0 mm
12:50 AM 66.4°F19.1°C 58.6°F14.8°C 76% Calm Calm 3.0 mph4.8 kmh 30.07 in1018.3 mb - 0.00 in0.0 mm 0.00 in0.0 mm
01:00 AM 66.7°F19.3°C 58.1°F14.5°C 74% Calm Calm -- 30.07 in1018.3 mb - 0.00 in0.0 mm 0.00 in0.0 mm
01:10 AM 67.0°F19.4°C 58.8°F14.9°C 75% Calm Calm -- 30.07 in1018.3 mb - 0.00 in0.0 mm 0.00 in0.0 mm
01:20 AM 67.2°F19.6°C 59.0°F15.0°C 75% 2.0 mph WNW3.2 kmh WNW 4.0 mph6.4 kmh 30.07 in1018.3 mb - 0.00 in0.0 mm 0.00 in0.0 mm
01:30 AM 67.2°F19.6°C 59.4°F15.2°C 76% 2.2 mph WNW3.5 kmh WNW 3.0 mph4.8 kmh 30.07 in1018.3 mb - 0.00 in0.0 mm 0.00 in0.0 mm
01:40 AM 67.0°F19.4°C 59.2°F15.1°C 76% 1.6 mph WNW2.6 kmh WNW 2.0 mph3.2 kmh 30.06 in1017.9 mb - 0.00 in0.0 mm 0.00 in0.0 mm
01:50 AM 66.7°F19.3°C 58.9°F14.9°C 76% 1.1 mph WNW1.8 kmh WNW 2.0 mph3.2 kmh 30.06 in1017.9 mb - 0.00 in0.0 mm 0.00 in0.0 mm
02:00 AM 66.5°F19.2°C 59.1°F15.1°C 77% Calm Calm -- 30.06 in1017.9 mb - 0.00 in0.0 mm 0.00 in0.0 mm
02:10 AM 66.5°F19.2°C 58.7°F14.8°C 76% Calm Calm -- 30.06 in1017.9 mb - 0.00 in0.0 mm 0.00 in0.0 mm
02:20 AM 66.4°F19.1°C 58.6°F14.8°C 76% Calm Calm -- 30.06 in1017.9 mb - 0.00 in0.0 mm 0.00 in0.0 mm
02:30 AM 66.2°F19.0°C 58.8°F14.9°C 77% Calm Calm -- 30.06 in1017.9 mb - 0.00 in0.0 mm 0.00 in0.0 mm
02:40 AM 66.1°F18.9°C 59.0°F15.0°C 78% Calm Calm -- 30.06 in1017.9 mb - 0.00 in0.0 mm 0.00 in0.0 mm
02:50 AM 66.1°F18.9°C 59.4°F15.2°C 79% Calm Calm -- 30.06 in1017.9 mb - 0.00 in0.0 mm 0.00 in0.0 mm
03:00 AM 66.1°F18.9°C 59.3°F15.2°C 79% Calm Calm -- 30.05 in1017.6 mb - 0.00 in0.0 mm 0.00 in0.0 mm
03:10 AM 66.1°F18.9°C 59.4°F15.2°C 79% Calm Calm -- 30.05 in1017.6 mb - 0.00 in0.0 mm 0.00 in0.0 mm
03:20 AM 66.0°F18.9°C 59.3°F15.2°C 79% Calm Calm -- 30.05 in1017.6 mb - 0.00 in0.0 mm 0.00 in0.0 mm
03:30 AM 66.0°F18.9°C 59.3°F15.2°C 79% Calm Calm -- 30.04 in1017.3 mb - 0.00 in0.0 mm 0.00 in0.0 mm
03:40 AM 66.1°F18.9°C 59.7°F15.4°C 80% Calm Calm -- 30.05 in1017.6 mb - 0.00 in0.0 mm 0.00 in0.0 mm
03:50 AM 66.2°F19.0°C 59.9°F15.5°C 80% Calm Calm -- 30.05 in1017.6 mb - 0.00 in0.0 mm 0.00 in0.0 mm
04:00 AM 66.3°F19.1°C 59.9°F15.5°C 80% Calm Calm -- 30.05 in1017.6 mb - 0.00 in0.0 mm 0.00 in0.0 mm
04:10 AM 66.3°F19.1°C 59.9°F15.5°C 80% Calm Calm -- 30.04 in1017.3 mb - 0.00 in0.0 mm 0.00 in0.0 mm
04:20 AM 66.3°F19.1°C 60.0°F15.6°C 80% Calm Calm -- 30.05 in1017.6 mb - 0.00 in0.0 mm 0.00 in0.0 mm
04:30 AM 66.4°F19.1°C 60.0°F15.6°C 80% Calm Calm -- 30.05 in1017.6 mb - 0.00 in0.0 mm 0.00 in0.0 mm
04:40 AM 66.4°F19.1°C 60.0°F15.6°C 80% Calm Calm -- 30.05 in1017.6 mb - 0.00 in0.0 mm 0.00 in0.0 mm
04:50 AM 66.3°F19.1°C 59.9°F15.5°C 80% Calm Calm -- 30.05 in1017.6 mb - 0.00 in0.0 mm 0.00 in0.0 mm
05:00 AM 66.2°F19.0°C 60.2°F15.7°C 81% Calm Calm -- 30.05 in1017.6 mb - 0.00 in0.0 mm 0.00 in0.0 mm
05:10 AM 66.3°F19.1°C 60.3°F15.7°C 81% Calm Calm -- 30.05 in1017.6 mb - 0.00 in0.0 mm 0.00 in0.0 mm
05:20 AM 66.3°F19.1°C 60.3°F15.7°C 81% 1.7 mph WNW2.7 kmh WNW 2.0 mph3.2 kmh 30.05 in1017.6 mb - 0.00 in0.0 mm 0.00 in0.0 mm
05:30 AM 66.2°F19.0°C 60.2°F15.7°C 81% Calm Calm -- 30.06 in1017.9 mb - 0.00 in0.0 mm 0.00 in0.0 mm
05:40 AM 66.0°F18.9°C 60.0°F15.6°C 81% Calm Calm -- 30.06 in1017.9 mb - 0.00 in0.0 mm 0.00 in0.0 mm
05:50 AM 66.0°F18.9°C 60.0°F15.6°C 81% 0.3 mph WNW0.5 kmh WNW 2.0 mph3.2 kmh 30.05 in1017.6 mb - 0.00 in0.0 mm 0.00 in0.0 mm
06:00 AM 66.1°F18.9°C 60.1°F15.6°C 81% Calm Calm -- 30.06 in1017.9 mb - 0.00 in0.0 mm 0.00 in0.0 mm
06:10 AM 66.1°F18.9°C 60.1°F15.6°C 81% Calm Calm -- 30.06 in1017.9 mb - 0.00 in0.0 mm 0.00 in0.0 mm
06:20 AM 66.2°F19.0°C 60.2°F15.7°C 81% Calm Calm -- 30.06 in1017.9 mb - 0.00 in0.0 mm 0.00 in0.0 mm
06:30 AM 66.2°F19.0°C 60.5°F15.8°C 82% Calm Calm -- 30.06 in1017.9 mb - 0.00 in0.0 mm 0.00 in0.0 mm
06:40 AM 66.2°F19.0°C 60.5°F15.8°C 82% Calm Calm -- 30.05 in1017.6 mb - 0.00 in0.0 mm 0.00 in0.0 mm
06:50 AM 66.2°F19.0°C 60.6°F15.9°C 82% Calm Calm -- 30.06 in1017.9 mb - 0.00 in0.0 mm 0.00 in0.0 mm
07:00 AM 66.2°F19.0°C 60.6°F15.9°C 82% Calm Calm -- 30.06 in1017.9 mb - 0.00 in0.0 mm 0.00 in0.0 mm
07:10 AM 66.3°F19.1°C 60.6°F15.9°C 82% Calm Calm -- 30.06 in1017.9 mb - 0.00 in0.0 mm 0.00 in0.0 mm
07:20 AM 66.3°F19.1°C 60.6°F15.9°C 82% 1.0 mph WNW1.6 kmh WNW 1.0 mph1.6 kmh 30.06 in1017.9 mb - 0.00 in0.0 mm 0.00 in0.0 mm
07:30 AM 66.3°F19.1°C 60.6°F15.9°C 82% 0.7 mph WNW1.1 kmh WNW 1.0 mph1.6 kmh 30.07 in1018.3 mb - 0.00 in0.0 mm 0.00 in0.0 mm
07:40 AM 66.4°F19.1°C 60.7°F15.9°C 82% Calm Calm -- 30.07 in1018.3 mb - 0.00 in0.0 mm 0.00 in0.0 mm
07:50 AM 67.0°F19.4°C 60.9°F16.1°C 81% 0.1 mph WNW0.2 kmh WNW 3.0 mph4.8 kmh 30.07 in1018.3 mb - 0.00 in0.0 mm 0.00 in0.0 mm
08:00 AM 67.7°F19.8°C 61.3°F16.3°C 80% 1.2 mph WNW1.9 kmh WNW 3.0 mph4.8 kmh 30.07 in1018.3 mb - 0.00 in0.0 mm 0.00 in0.0 mm
08:10 AM 68.1°F20.1°C 61.7°F16.5°C 80% Calm Calm 3.0 mph4.8 kmh 30.08 in1018.6 mb - 0.00 in0.0 mm 0.00 in0.0 mm
08:20 AM 68.4°F20.2°C 61.6°F16.4°C 79% 0.6 mph WNW1.0 kmh WNW 3.0 mph4.8 kmh 30.08 in1018.6 mb - 0.00 in0.0 mm 0.00 in0.0 mm
08:30 AM 68.4°F20.2°C 61.7°F16.5°C 79% 2.0 mph WNW3.2 kmh WNW 3.0 mph4.8 kmh 30.08 in1018.6 mb - 0.00 in0.0 mm 0.00 in0.0 mm
08:40 AM 69.0°F20.6°C 61.8°F16.6°C 78% 0.7 mph WNW1.1 kmh WNW 3.0 mph4.8 kmh 30.08 in1018.6 mb - 0.00 in0.0 mm 0.00 in0.0 mm
08:50 AM 69.2°F20.7°C 61.7°F16.5°C 77% 0.2 mph WNW0.3 kmh WNW 2.0 mph3.2 kmh 30.09 in1019.0 mb - 0.00 in0.0 mm 0.00 in0.0 mm
09:00 AM 68.8°F20.4°C 62.0°F16.7°C 79% 3.1 mph WNW5.0 kmh WNW 5.0 mph8.0 kmh 30.09 in1019.0 mb - 0.00 in0.0 mm 0.00 in0.0 mm
09:10 AM 69.4°F20.8°C 62.3°F16.8°C 78% 0.8 mph WNW1.3 kmh WNW 2.0 mph3.2 kmh 30.09 in1019.0 mb - 0.00 in0.0 mm 0.00 in0.0 mm
09:20 AM 70.1°F21.2°C 61.1°F16.2°C 73% 1.3 mph WNW2.1 kmh WNW 2.0 mph3.2 kmh 30.09 in1019.0 mb - 0.00 in0.0 mm 0.00 in0.0 mm
09:30 AM 70.8°F21.6°C 60.5°F15.8°C 70% 0.9 mph WNW1.4 kmh WNW -- 30.10 in1019.3 mb - 0.00 in0.0 mm 0.00 in0.0 mm
09:40 AM 71.7°F22.1°C 60.2°F15.7°C 67% 0.7 mph WNW1.1 kmh WNW 3.0 mph4.8 kmh 30.10 in1019.3 mb - 0.00 in0.0 mm 0.00 in0.0 mm
09:50 AM 72.0°F22.2°C 60.0°F15.6°C 66% 6.2 mph NE10.0 kmh NE 8.0 mph12.9 kmh 30.11 in1019.6 mb - 0.00 in0.0 mm 0.00 in0.0 mm
10:00 AM 72.8°F22.7°C 60.4°F15.8°C 65% 5.4 mph NE8.7 kmh NE 12.0 mph19.3 kmh 30.10 in1019.3 mb - 0.00 in0.0 mm 0.00 in0.0 mm
10:10 AM 72.4°F22.4°C 59.6°F15.3°C 64% 5.2 mph NE8.4 kmh NE 7.0 mph11.3 kmh 30.11 in1019.6 mb - 0.00 in0.0 mm 0.00 in0.0 mm
10:20 AM 72.3°F22.4°C 59.9°F15.5°C 65% 5.2 mph NE8.4 kmh NE 9.0 mph14.5 kmh 30.11 in1019.6 mb - 0.00 in0.0 mm 0.00 in0.0 mm
10:30 AM 72.1°F22.3°C 59.3°F15.2°C 64% 6.3 mph NNE10.1 kmh NNE 7.0 mph11.3 kmh 30.11 in1019.6 mb - 0.00 in0.0 mm 0.00 in0.0 mm
10:40 AM 72.2°F22.3°C 58.5°F14.7°C 62% 9.6 mph NE15.4 kmh NE 15.0 mph24.1 kmh 30.10 in1019.3 mb - 0.00 in0.0 mm 0.00 in0.0 mm
10:50 AM 72.1°F22.3°C 58.4°F14.7°C 62% 7.2 mph NE11.6 kmh NE 12.0 mph19.3 kmh 30.10 in1019.3 mb - 0.00 in0.0 mm 0.00 in0.0 mm
11:00 AM 72.7°F22.6°C 58.5°F14.7°C 61% 11.2 mph NE18.0 kmh NE 13.0 mph20.9 kmh 30.11 in1019.6 mb - 0.00 in0.0 mm 0.00 in0.0 mm
11:10 AM 73.5°F23.1°C 58.3°F14.6°C 59% 6.9 mph NE11.1 kmh NE 15.0 mph24.1 kmh 30.11 in1019.6 mb - 0.00 in0.0 mm 0.00 in0.0 mm
11:20 AM 73.7°F23.2°C 57.5°F14.2°C 57% 7.0 mph NE11.3 kmh NE 9.0 mph14.5 kmh 30.11 in1019.6 mb - 0.00 in0.0 mm 0.00 in0.0 mm
11:30 AM 74.1°F23.4°C 57.9°F14.4°C 57% 4.3 mph NE6.9 kmh NE 8.0 mph12.9 kmh 30.11 in1019.6 mb - 0.00 in0.0 mm 0.00 in0.0 mm
11:40 AM 74.3°F23.5°C 58.6°F14.8°C 58% 4.7 mph E7.6 kmh E 5.0 mph8.0 kmh 30.11 in1019.6 mb - 0.00 in0.0 mm 0.00 in0.0 mm
11:50 AM 72.5°F22.5°C 58.7°F14.8°C 62% 6.5 mph S10.5 kmh S 9.0 mph14.5 kmh 30.11 in1019.6 mb - 0.00 in0.0 mm 0.00 in0.0 mm
12:00 PM 73.4°F23.0°C 59.1°F15.1°C 61% 4.8 mph SW7.7 kmh SW 7.0 mph11.3 kmh 30.11 in1019.6 mb - 0.00 in0.0 mm 0.00 in0.0 mm
12:10 PM 74.0°F23.3°C 60.2°F15.7°C 62% 5.8 mph SW9.3 kmh SW 11.0 mph17.7 kmh 30.11 in1019.6 mb - 0.00 in0.0 mm 0.00 in0.0 mm
12:20 PM 72.6°F22.6°C 60.2°F15.7°C 65% 6.7 mph S10.8 kmh S 10.0 mph16.1 kmh 30.11 in1019.6 mb - 0.00 in0.0 mm 0.00 in0.0 mm
12:30 PM 72.9°F22.7°C 60.0°F15.6°C 64% 4.4 mph SSW7.1 kmh SSW 7.0 mph11.3 kmh 30.10 in1019.3 mb - 0.00 in0.0 mm 0.00 in0.0 mm
12:40 PM 74.3°F23.5°C 60.4°F15.8°C 62% 4.3 mph SSW6.9 kmh SSW 7.0 mph11.3 kmh 30.10 in1019.3 mb - 0.00 in0.0 mm 0.00 in0.0 mm
12:50 PM 73.7°F23.2°C 59.4°F15.2°C 61% 5.0 mph SW8.0 kmh SW 7.0 mph11.3 kmh 30.09 in1019.0 mb - 0.00 in0.0 mm 0.00 in0.0 mm
01:00 PM 72.2°F22.3°C 59.4°F15.2°C 64% 5.0 mph SW8.0 kmh SW 6.0 mph9.7 kmh 30.09 in1019.0 mb - 0.00 in0.0 mm 0.00 in0.0 mm
01:10 PM 73.1°F22.8°C 60.2°F15.7°C 64% 4.4 mph SW7.1 kmh SW 6.0 mph9.7 kmh 30.09 in1019.0 mb - 0.00 in0.0 mm 0.00 in0.0 mm
01:20 PM 73.2°F22.9°C 60.3°F15.7°C 64% 5.2 mph SW8.4 kmh SW 7.0 mph11.3 kmh 30.09 in1019.0 mb - 0.00 in0.0 mm 0.00 in0.0 mm
01:30 PM 73.0°F22.8°C 60.1°F15.6°C 64% 6.7 mph SW10.8 kmh SW 6.0 mph9.7 kmh 30.09 in1019.0 mb - 0.00 in0.0 mm 0.00 in0.0 mm
01:40 PM 73.4°F23.0°C 60.1°F15.6°C 63% 5.6 mph S9.0 kmh S 7.0 mph11.3 kmh 30.09 in1019.0 mb - 0.00 in0.0 mm 0.00 in0.0 mm
01:50 PM 73.0°F22.8°C 60.1°F15.6°C 64% 5.6 mph S9.0 kmh S 7.0 mph11.3 kmh 30.09 in1019.0 mb - 0.00 in0.0 mm 0.00 in0.0 mm
02:00 PM 72.9°F22.7°C 59.1°F15.1°C 62% 4.2 mph S6.8 kmh S 6.0 mph9.7 kmh 30.09 in1019.0 mb - 0.00 in0.0 mm 0.00 in0.0 mm
02:10 PM 73.8°F23.2°C 60.4°F15.8°C 63% 5.9 mph S9.5 kmh S 9.0 mph14.5 kmh 30.09 in1019.0 mb - 0.00 in0.0 mm 0.00 in0.0 mm
02:20 PM 73.1°F22.8°C 60.6°F15.9°C 65% 5.8 mph S9.3 kmh S 9.0 mph14.5 kmh 30.09 in1019.0 mb - 0.00 in0.0 mm 0.00 in0.0 mm
02:30 PM 72.2°F22.3°C 59.3°F15.2°C 64% 4.9 mph S7.9 kmh S 10.0 mph16.1 kmh 30.09 in1019.0 mb - 0.00 in0.0 mm 0.00 in0.0 mm
02:40 PM 72.0°F22.2°C 59.2°F15.1°C 64% 5.5 mph S8.9 kmh S 10.0 mph16.1 kmh 30.09 in1019.0 mb - 0.00 in0.0 mm 0.00 in0.0 mm
02:50 PM 72.6°F22.6°C 59.3°F15.2°C 63% 6.2 mph S10.0 kmh S 10.0 mph16.1 kmh 30.09 in1019.0 mb - 0.00 in0.0 mm 0.00 in0.0 mm
03:00 PM 73.6°F23.1°C 60.2°F15.7°C 63% 4.8 mph S7.7 kmh S 7.0 mph11.3 kmh 30.09 in1019.0 mb - 0.00 in0.0 mm 0.00 in0.0 mm
03:10 PM 73.7°F23.2°C 61.2°F16.2°C 65% 5.2 mph S8.4 kmh S 7.0 mph11.3 kmh 30.09 in1019.0 mb - 0.00 in0.0 mm 0.00 in0.0 mm
03:20 PM 73.5°F23.1°C 60.5°F15.8°C 64% 4.7 mph S7.6 kmh S 5.0 mph8.0 kmh 30.09 in1019.0 mb - 0.00 in0.0 mm 0.00 in0.0 mm
03:30 PM 72.4°F22.4°C 60.4°F15.8°C 66% 7.2 mph S11.6 kmh S 10.0 mph16.1 kmh 30.09 in1019.0 mb - 0.00 in0.0 mm 0.00 in0.0 mm
03:40 PM 72.3°F22.4°C 60.8°F16.0°C 67% 4.8 mph S7.7 kmh S 8.0 mph12.9 kmh 30.09 in1019.0 mb - 0.00 in0.0 mm 0.00 in0.0 mm
03:50 PM 71.3°F21.8°C 60.2°F15.7°C 68% 5.8 mph S9.3 kmh S 8.0 mph12.9 kmh 30.09 in1019.0 mb - 0.00 in0.0 mm 0.00 in0.0 mm
04:00 PM 71.6°F22.0°C 60.1°F15.6°C 67% 5.3 mph S8.5 kmh S 8.0 mph12.9 kmh 30.09 in1019.0 mb - 0.00 in0.0 mm 0.00 in0.0 mm
04:10 PM 71.9°F22.2°C 59.9°F15.5°C 66% 5.5 mph S8.9 kmh S 7.0 mph11.3 kmh 30.08 in1018.6 mb - 0.00 in0.0 mm 0.00 in0.0 mm
04:20 PM 71.5°F21.9°C 59.6°F15.3°C 66% 5.2 mph S8.4 kmh S 6.0 mph9.7 kmh 30.08 in1018.6 mb - 0.00 in0.0 mm 0.00 in0.0 mm
04:30 PM 72.1°F22.3°C 60.5°F15.8°C 67% 5.2 mph S8.4 kmh S 7.0 mph11.3 kmh 30.08 in1018.6 mb - 0.00 in0.0 mm 0.00 in0.0 mm
04:40 PM 71.5°F21.9°C 59.5°F15.3°C 66% 5.0 mph S8.0 kmh S 6.0 mph9.7 kmh 30.08 in1018.6 mb - 0.00 in0.0 mm 0.00 in0.0 mm
04:50 PM 71.2°F21.8°C 60.5°F15.8°C 69% 4.4 mph S7.1 kmh S 6.0 mph9.7 kmh 30.09 in1019.0 mb - 0.00 in0.0 mm 0.00 in0.0 mm
06:10 PM 70.3°F21.3°C 59.2°F15.1°C 68% 5.1 mph S8.2 kmh S 7.0 mph11.3 kmh 30.08 in1018.6 mb - 0.00 in0.0 mm 0.00 in0.0 mm
07:00 PM 68.4°F20.2°C 59.0°F15.0°C 72% 0.2 mph S0.3 kmh S 4.0 mph6.4 kmh 30.10 in1019.3 mb - 0.00 in0.0 mm 0.00 in0.0 mm
07:10 PM 67.8°F19.9°C 58.8°F14.9°C 73% 2.4 mph S3.9 kmh S 3.0 mph4.8 kmh 30.10 in1019.3 mb - 0.00 in0.0 mm 0.00 in0.0 mm
07:20 PM 67.6°F19.8°C 58.6°F14.8°C 73% 1.4 mph S2.3 kmh S 3.0 mph4.8 kmh 30.11 in1019.6 mb - 0.00 in0.0 mm 0.00 in0.0 mm
07:30 PM 67.2°F19.6°C 57.9°F14.4°C 72% 0.6 mph S1.0 kmh S 2.0 mph3.2 kmh 30.11 in1019.6 mb - 0.00 in0.0 mm 0.00 in0.0 mm
07:40 PM 66.9°F19.4°C 57.2°F14.0°C 71% 2.2 mph S3.5 kmh S 4.0 mph6.4 kmh 30.11 in1019.6 mb - 0.00 in0.0 mm 0.00 in0.0 mm
07:50 PM 66.8°F19.3°C 57.5°F14.2°C 72% 2.6 mph S4.2 kmh S 3.0 mph4.8 kmh 30.11 in1019.6 mb - 0.00 in0.0 mm 0.00 in0.0 mm
08:00 PM 66.4°F19.1°C 57.1°F13.9°C 72% 3.4 mph S5.5 kmh S 5.0 mph8.0 kmh 30.11 in1019.6 mb - 0.00 in0.0 mm 0.00 in0.0 mm
08:10 PM 66.3°F19.1°C 57.8°F14.3°C 74% 3.6 mph S5.8 kmh S 5.0 mph8.0 kmh 30.11 in1019.6 mb - 0.00 in0.0 mm 0.00 in0.0 mm
08:20 PM 66.1°F18.9°C 57.6°F14.2°C 74% 3.0 mph S4.8 kmh S 4.0 mph6.4 kmh 30.11 in1019.6 mb - 0.00 in0.0 mm 0.00 in0.0 mm
08:30 PM 66.1°F18.9°C 57.9°F14.4°C 75% 3.0 mph S4.8 kmh S 4.0 mph6.4 kmh 30.11 in1019.6 mb - 0.00 in0.0 mm 0.00 in0.0 mm
08:40 PM 66.1°F18.9°C 57.9°F14.4°C 75% 2.1 mph S3.4 kmh S 3.0 mph4.8 kmh 30.12 in1020.0 mb - 0.00 in0.0 mm 0.00 in0.0 mm
08:50 PM 65.9°F18.8°C 57.8°F14.3°C 75% 2.8 mph S4.5 kmh S 3.0 mph4.8 kmh 30.12 in1020.0 mb - 0.00 in0.0 mm 0.00 in0.0 mm
09:00 PM 65.9°F18.8°C 58.1°F14.5°C 76% 3.3 mph S5.3 kmh S 4.0 mph6.4 kmh 30.12 in1020.0 mb - 0.00 in0.0 mm 0.00 in0.0 mm
09:10 PM 66.1°F18.9°C 58.3°F14.6°C 76% 1.9 mph S3.1 kmh S 3.0 mph4.8 kmh 30.12 in1020.0 mb - 0.00 in0.0 mm 0.00 in0.0 mm
09:20 PM 66.2°F19.0°C 58.4°F14.7°C 76% 1.2 mph S1.9 kmh S 2.0 mph3.2 kmh 30.12 in1020.0 mb - 0.00 in0.0 mm 0.00 in0.0 mm
09:30 PM 66.3°F19.1°C 58.5°F14.7°C 76% 1.5 mph S2.4 kmh S 3.0 mph4.8 kmh 30.13 in1020.3 mb - 0.00 in0.0 mm 0.00 in0.0 mm
09:40 PM 66.3°F19.1°C 58.5°F14.7°C 76% 1.0 mph S1.6 kmh S 2.0 mph3.2 kmh 30.13 in1020.3 mb - 0.00 in0.0 mm 0.00 in0.0 mm
09:50 PM 66.3°F19.1°C 58.5°F14.7°C 76% 1.1 mph S1.8 kmh S 3.0 mph4.8 kmh 30.13 in1020.3 mb - 0.00 in0.0 mm 0.00 in0.0 mm
10:00 PM 66.2°F19.0°C 58.8°F14.9°C 77% 3.5 mph S5.6 kmh S 4.0 mph6.4 kmh 30.13 in1020.3 mb - 0.00 in0.0 mm 0.00 in0.0 mm
10:10 PM 66.3°F19.1°C 58.9°F14.9°C 77% 2.3 mph S3.7 kmh S 3.0 mph4.8 kmh 30.13 in1020.3 mb - 0.00 in0.0 mm 0.00 in0.0 mm
10:20 PM 66.3°F19.1°C 59.2°F15.1°C 78% 1.1 mph S1.8 kmh S 2.0 mph3.2 kmh 30.13 in1020.3 mb - 0.00 in0.0 mm 0.00 in0.0 mm
10:30 PM 66.4°F19.1°C 59.3°F15.2°C 78% 1.7 mph S2.7 kmh S 3.0 mph4.8 kmh 30.13 in1020.3 mb - 0.00 in0.0 mm 0.00 in0.0 mm
10:40 PM 66.5°F19.2°C 59.4°F15.2°C 78% 2.1 mph S3.4 kmh S 3.0 mph4.8 kmh 30.13 in1020.3 mb - 0.00 in0.0 mm 0.00 in0.0 mm
10:50 PM 66.7°F19.3°C 59.6°F15.3°C 78% 1.2 mph S1.9 kmh S 3.0 mph4.8 kmh 30.13 in1020.3 mb - 0.00 in0.0 mm 0.00 in0.0 mm
11:00 PM 66.6°F19.2°C 59.5°F15.3°C 78% 1.2 mph S1.9 kmh S 2.0 mph3.2 kmh 30.13 in1020.3 mb - 0.00 in0.0 mm 0.00 in0.0 mm
11:10 PM 66.5°F19.2°C 59.4°F15.2°C 78% 1.4 mph S2.3 kmh S 2.0 mph3.2 kmh 30.12 in1020.0 mb - 0.00 in0.0 mm 0.00 in0.0 mm
11:20 PM 66.3°F19.1°C 59.2°F15.1°C 78% 1.8 mph S2.9 kmh S 3.0 mph4.8 kmh 30.13 in1020.3 mb - 0.00 in0.0 mm 0.00 in0.0 mm
11:30 PM 66.2°F19.0°C 58.8°F14.9°C 77% 1.7 mph S2.7 kmh S 3.0 mph4.8 kmh 30.13 in1020.3 mb - 0.00 in0.0 mm 0.00 in0.0 mm
11:40 PM 66.4°F19.1°C 59.0°F15.0°C 77% 2.0 mph S3.2 kmh S 2.0 mph3.2 kmh 30.13 in1020.3 mb - 0.00 in0.0 mm 0.00 in0.0 mm
11:50 PM 66.5°F19.2°C 59.4°F15.2°C 78% 2.2 mph S3.5 kmh S 3.0 mph4.8 kmh 30.12 in1020.0 mb - 0.00 in0.0 mm 0.00 in0.0 mm